JBU25 CYYZ-KBOS
Flight info
| Callsign | JBU25 |
|---|---|
| Flight time | N/A |
| Altitude | 37000 |
| Route | KEPTA3BMPAH/23 KEPTA3 BMPAH DCT AEVON DCT HANKK DCT PONCT JFUND2 |
| Aircraft | A320/M-SDE3FGHIRWY/LB1 |
Departure
| Time | 2026-05-03 20:28 |
|---|---|
| Airport | Toronto Pearson International Airport (CYYZ) |
Arrival
| Time | N/A |
|---|---|
| Airport | Boston Logan International Airport (KBOS) |
| Time | Latitude | Longitude | Altitude | Speed | Heading |
|---|---|---|---|---|---|
| 2026-05-03 20:15 | 43.68468 | -79.62331 | 563 ft | 0 kts | 330° |
| 2026-05-03 20:16 | 43.68460 | -79.62326 | 575 ft | 2 kts | 322° |
| 2026-05-03 20:16 | 43.68448 | -79.62311 | 573 ft | 2 kts | 311° |
| 2026-05-03 20:16 | 43.68437 | -79.62293 | 565 ft | 2 kts | 293° |
| 2026-05-03 20:16 | 43.68433 | -79.62271 | 571 ft | 2 kts | 270° |
| 2026-05-03 20:17 | 43.68434 | -79.62249 | 568 ft | 2 kts | 250° |
| 2026-05-03 20:17 | 43.68441 | -79.62228 | 571 ft | 2 kts | 234° |
| 2026-05-03 20:17 | 43.68446 | -79.62219 | 568 ft | 1 kts | 227° |
| 2026-05-03 20:20 | 43.68439 | -79.62229 | 571 ft | 3 kts | 227° |
| 2026-05-03 20:20 | 43.68431 | -79.62240 | 570 ft | 1 kts | 226° |
| 2026-05-03 20:21 | 43.68428 | -79.62244 | 569 ft | 0 kts | 226° |
| 2026-05-03 20:21 | 43.68426 | -79.62248 | 570 ft | 3 kts | 226° |
| 2026-05-03 20:21 | 43.68397 | -79.62291 | 569 ft | 0 kts | 227° |
| 2026-05-03 20:22 | 43.68383 | -79.62312 | 566 ft | 10 kts | 227° |
| 2026-05-03 20:22 | 43.68338 | -79.62369 | 566 ft | 9 kts | 214° |
| 2026-05-03 20:22 | 43.68281 | -79.62410 | 569 ft | 9 kts | 227° |
| 2026-05-03 20:23 | 43.68276 | -79.62479 | 567 ft | 6 kts | 294° |
| 2026-05-03 20:23 | 43.68287 | -79.62498 | 570 ft | 9 kts | 315° |
| 2026-05-03 20:23 | 43.68369 | -79.62609 | 564 ft | 18 kts | 315° |
| 2026-05-03 20:23 | 43.68451 | -79.62716 | 565 ft | 16 kts | 317° |
| 2026-05-03 20:24 | 43.68539 | -79.62834 | 561 ft | 18 kts | 315° |
| 2026-05-03 20:24 | 43.68636 | -79.62960 | 568 ft | 20 kts | 317° |
| 2026-05-03 20:24 | 43.68734 | -79.63084 | 561 ft | 16 kts | 319° |
| 2026-05-03 20:24 | 43.68817 | -79.63191 | 564 ft | 17 kts | 316° |
| 2026-05-03 20:25 | 43.68902 | -79.63302 | 564 ft | 16 kts | 316° |
| 2026-05-03 20:25 | 43.68989 | -79.63415 | 565 ft | 19 kts | 315° |
| 2026-05-03 20:25 | 43.69068 | -79.63514 | 565 ft | 9 kts | 329° |
| 2026-05-03 20:25 | 43.69127 | -79.63507 | 566 ft | 10 kts | 38° |
| 2026-05-03 20:26 | 43.69191 | -79.63438 | 573 ft | 13 kts | 28° |
| 2026-05-03 20:26 | 43.69287 | -79.63421 | 570 ft | 15 kts | 2° |
| 2026-05-03 20:26 | 43.69331 | -79.63420 | 565 ft | 0 kts | 357° |
| 2026-05-03 20:27 | 43.69340 | -79.63423 | 565 ft | 5 kts | 341° |
| 2026-05-03 20:27 | 43.69390 | -79.63473 | 563 ft | 12 kts | 314° |
| 2026-05-03 20:27 | 43.69378 | -79.63560 | 566 ft | 12 kts | 228° |
| 2026-05-03 20:27 | 43.69291 | -79.63687 | 565 ft | 38 kts | 226° |
| 2026-05-03 20:28 | 43.68918 | -79.64228 | 566 ft | 113 kts | 226° |
| 2026-05-03 20:28 | 43.68244 | -79.65204 | 747 ft | 152 kts | 226° |
| 2026-05-03 20:28 | 43.67540 | -79.66293 | 1603 ft | 154 kts | 237° |
| 2026-05-03 20:28 | 43.66892 | -79.67501 | 2398 ft | 158 kts | 239° |
| 2026-05-03 20:29 | 43.66260 | -79.68734 | 3027 ft | 157 kts | 241° |
| 2026-05-03 20:29 | 43.65588 | -79.70092 | 3119 ft | 188 kts | 241° |
| 2026-05-03 20:29 | 43.64795 | -79.71715 | 3281 ft | 217 kts | 240° |
| 2026-05-03 20:29 | 43.63916 | -79.73512 | 3864 ft | 231 kts | 239° |
| 2026-05-03 20:30 | 43.62941 | -79.75319 | 4636 ft | 240 kts | 229° |
| 2026-05-03 20:30 | 43.61478 | -79.76538 | 5427 ft | 257 kts | 202° |
| 2026-05-03 20:30 | 43.59644 | -79.76571 | 6245 ft | 278 kts | 170° |
| 2026-05-03 20:30 | 43.57922 | -79.75162 | 6823 ft | 301 kts | 140° |
| 2026-05-03 20:31 | 43.56565 | -79.72930 | 6976 ft | 306 kts | 129° |
| 2026-05-03 20:31 | 43.55401 | -79.70472 | 7010 ft | 307 kts | 124° |
| 2026-05-03 20:31 | 43.54317 | -79.67937 | 7054 ft | 309 kts | 123° |
| 2026-05-03 20:31 | 43.53231 | -79.65370 | 7811 ft | 310 kts | 124° |
| 2026-05-03 20:32 | 43.52121 | -79.62794 | 8586 ft | 315 kts | 122° |
| 2026-05-03 20:32 | 43.51282 | -79.59956 | 9361 ft | 324 kts | 105° |
| 2026-05-03 20:32 | 43.50960 | -79.56863 | 10092 ft | 330 kts | 89° |
| 2026-05-03 20:32 | 43.51207 | -79.53656 | 10417 ft | 346 kts | 73° |
| 2026-05-03 20:33 | 43.51849 | -79.50350 | 10600 ft | 367 kts | 71° |
| 2026-05-03 20:33 | 43.52454 | -79.46893 | 11117 ft | 376 kts | 79° |
| 2026-05-03 20:33 | 43.52596 | -79.43270 | 11791 ft | 382 kts | 92° |
| 2026-05-03 20:33 | 43.52194 | -79.39646 | 12458 ft | 386 kts | 105° |
| 2026-05-03 20:34 | 43.51280 | -79.36160 | 13124 ft | 388 kts | 114° |
| 2026-05-03 20:34 | 43.50222 | -79.32712 | 13777 ft | 392 kts | 114° |
| 2026-05-03 20:34 | 43.49161 | -79.29244 | 14372 ft | 395 kts | 113° |
| 2026-05-03 20:34 | 43.48094 | -79.25745 | 14980 ft | 397 kts | 113° |
| 2026-05-03 20:35 | 43.47023 | -79.22235 | 15574 ft | 399 kts | 113° |
| 2026-05-03 20:35 | 43.45943 | -79.18700 | 16176 ft | 401 kts | 113° |
| 2026-05-03 20:35 | 43.44856 | -79.15152 | 16776 ft | 404 kts | 113° |
| 2026-05-03 20:35 | 43.43761 | -79.11585 | 17381 ft | 406 kts | 112° |
| 2026-05-03 20:36 | 43.42653 | -79.07991 | 17977 ft | 409 kts | 112° |
| 2026-05-03 20:36 | 43.41533 | -79.04383 | 18533 ft | 411 kts | 112° |
| 2026-05-03 20:36 | 43.40402 | -79.00749 | 19064 ft | 414 kts | 112° |
| 2026-05-03 20:36 | 43.39267 | -78.97106 | 19603 ft | 417 kts | 112° |
| 2026-05-03 20:37 | 43.38120 | -78.93424 | 20152 ft | 420 kts | 112° |
| 2026-05-03 20:37 | 43.36965 | -78.89717 | 20676 ft | 423 kts | 112° |
| 2026-05-03 20:37 | 43.35802 | -78.85986 | 21201 ft | 426 kts | 112° |
| 2026-05-03 20:37 | 43.34625 | -78.82219 | 21706 ft | 429 kts | 112° |
| 2026-05-03 20:38 | 43.33440 | -78.78442 | 22196 ft | 432 kts | 112° |
| 2026-05-03 20:38 | 43.32244 | -78.74633 | 22687 ft | 435 kts | 112° |
| 2026-05-03 20:38 | 43.31042 | -78.70801 | 23168 ft | 438 kts | 112° |
| 2026-05-03 20:38 | 43.29832 | -78.66947 | 23615 ft | 441 kts | 112° |
| 2026-05-03 20:39 | 43.28609 | -78.63065 | 24015 ft | 444 kts | 112° |
| 2026-05-03 20:39 | 43.27380 | -78.59170 | 24410 ft | 446 kts | 112° |
| 2026-05-03 20:39 | 43.26147 | -78.55258 | 24809 ft | 448 kts | 112° |
| 2026-05-03 20:39 | 43.24905 | -78.51324 | 25208 ft | 450 kts | 112° |
| 2026-05-03 20:40 | 43.23655 | -78.47379 | 25596 ft | 452 kts | 112° |
| 2026-05-03 20:40 | 43.22396 | -78.43416 | 25974 ft | 454 kts | 113° |
| 2026-05-03 20:40 | 43.21127 | -78.39435 | 26346 ft | 456 kts | 113° |
| 2026-05-03 20:40 | 43.19847 | -78.35449 | 26709 ft | 458 kts | 115° |
| 2026-05-03 20:41 | 43.18291 | -78.31635 | 27056 ft | 460 kts | 124° |
| 2026-05-03 20:41 | 43.16354 | -78.28135 | 27407 ft | 461 kts | 130° |
| 2026-05-03 20:41 | 43.14321 | -78.24728 | 27761 ft | 463 kts | 130° |
| 2026-05-03 20:41 | 43.12273 | -78.21303 | 28118 ft | 465 kts | 130° |
| 2026-05-03 20:42 | 43.10217 | -78.17867 | 28469 ft | 467 kts | 130° |
| 2026-05-03 20:42 | 43.08179 | -78.14457 | 28811 ft | 469 kts | 130° |
| 2026-05-03 20:42 | 43.06107 | -78.10992 | 29146 ft | 471 kts | 130° |
| 2026-05-03 20:42 | 43.04023 | -78.07513 | 29485 ft | 473 kts | 130° |
| 2026-05-03 20:43 | 43.01931 | -78.04029 | 29825 ft | 475 kts | 130° |
| 2026-05-03 20:43 | 42.99832 | -78.00536 | 30220 ft | 474 kts | 130° |
| 2026-05-03 20:43 | 42.97738 | -77.97056 | 30598 ft | 474 kts | 130° |
| 2026-05-03 20:43 | 42.95648 | -77.93567 | 30961 ft | 474 kts | 129° |
| 2026-05-03 20:44 | 42.93820 | -77.89822 | 31312 ft | 476 kts | 119° |
| 2026-05-03 20:44 | 42.92431 | -77.85722 | 31664 ft | 476 kts | 109° |
| 2026-05-03 20:44 | 42.91518 | -77.81378 | 32027 ft | 476 kts | 100° |
| 2026-05-03 20:44 | 42.91102 | -77.76909 | 32372 ft | 474 kts | 90° |
| 2026-05-03 20:45 | 42.91003 | -77.72408 | 32722 ft | 474 kts | 90° |
| 2026-05-03 20:45 | 42.90936 | -77.69426 | 32963 ft | 475 kts | 90° |
| 2026-05-03 20:45 | 42.90789 | -77.63408 | 33444 ft | 475 kts | 90° |
| 2026-05-03 20:45 | 42.90712 | -77.60428 | 33677 ft | 475 kts | 90° |
| 2026-05-03 20:46 | 42.90594 | -77.55920 | 34007 ft | 475 kts | 91° |
| 2026-05-03 20:46 | 42.90475 | -77.51412 | 34276 ft | 476 kts | 91° |
| 2026-05-03 20:46 | 42.90359 | -77.46908 | 34539 ft | 476 kts | 91° |
| 2026-05-03 20:46 | 42.90242 | -77.42327 | 34802 ft | 477 kts | 91° |
| 2026-05-03 20:47 | 42.90126 | -77.37815 | 35052 ft | 477 kts | 91° |
| 2026-05-03 20:47 | 42.90007 | -77.33298 | 35298 ft | 477 kts | 91° |
| 2026-05-03 20:47 | 42.89882 | -77.28768 | 35539 ft | 478 kts | 91° |
| 2026-05-03 20:47 | 42.89754 | -77.24236 | 35776 ft | 478 kts | 91° |
| 2026-05-03 20:48 | 42.89626 | -77.19704 | 36010 ft | 478 kts | 91° |
| 2026-05-03 20:48 | 42.89495 | -77.15168 | 36248 ft | 479 kts | 91° |
| 2026-05-03 20:48 | 42.89362 | -77.10626 | 36464 ft | 479 kts | 92° |
| 2026-05-03 20:48 | 42.89226 | -77.06088 | 36683 ft | 479 kts | 92° |
| 2026-05-03 20:49 | 42.89087 | -77.01540 | 36869 ft | 480 kts | 92° |
| 2026-05-03 20:49 | 42.88794 | -76.92372 | 36931 ft | 487 kts | 92° |
| 2026-05-03 20:50 | 42.88491 | -76.83123 | 36932 ft | 489 kts | 92° |
| 2026-05-03 20:50 | 42.88184 | -76.73860 | 36930 ft | 488 kts | 92° |
| 2026-05-03 20:51 | 42.87872 | -76.64688 | 36935 ft | 485 kts | 92° |
| 2026-05-03 20:51 | 42.87549 | -76.55458 | 36935 ft | 488 kts | 92° |
| 2026-05-03 20:52 | 42.87222 | -76.46220 | 36937 ft | 488 kts | 92° |
| 2026-05-03 20:52 | 42.86892 | -76.36963 | 36936 ft | 489 kts | 92° |
| 2026-05-03 20:53 | 42.86547 | -76.27699 | 36935 ft | 489 kts | 93° |
| 2026-05-03 20:53 | 42.86198 | -76.18440 | 36937 ft | 489 kts | 93° |
| 2026-05-03 20:54 | 42.85838 | -76.09177 | 36938 ft | 489 kts | 93° |
| 2026-05-03 20:54 | 42.85291 | -75.95276 | 36938 ft | 490 kts | 93° |
| 2026-05-03 20:55 | 42.84923 | -75.86008 | 36933 ft | 490 kts | 93° |
| 2026-05-03 20:55 | 42.84536 | -75.76715 | 36930 ft | 490 kts | 93° |
| 2026-05-03 20:56 | 42.84142 | -75.67439 | 36930 ft | 490 kts | 93° |
| 2026-05-03 20:56 | 42.83747 | -75.58149 | 36930 ft | 491 kts | 93° |
| 2026-05-03 20:57 | 42.83342 | -75.48864 | 36929 ft | 491 kts | 94° |
| 2026-05-03 20:57 | 42.82920 | -75.39587 | 36928 ft | 491 kts | 94° |
| 2026-05-03 20:58 | 42.82498 | -75.30315 | 36933 ft | 491 kts | 94° |
| 2026-05-03 20:58 | 42.82069 | -75.21094 | 36940 ft | 491 kts | 94° |
| 2026-05-03 20:59 | 42.81633 | -75.11802 | 36942 ft | 491 kts | 94° |
| 2026-05-03 20:59 | 42.81191 | -75.02527 | 36939 ft | 491 kts | 94° |
| 2026-05-03 21:00 | 42.80815 | -74.94745 | 36940 ft | 491 kts | 94° |
| 2026-05-03 21:00 | 42.80278 | -74.83973 | 36936 ft | 491 kts | 94° |
| 2026-05-03 21:01 | 42.79811 | -74.74704 | 36938 ft | 490 kts | 94° |
| 2026-05-03 21:01 | 42.79341 | -74.65443 | 36936 ft | 490 kts | 94° |
| 2026-05-03 21:02 | 42.78861 | -74.56183 | 36932 ft | 490 kts | 94° |
| 2026-05-03 21:02 | 42.78374 | -74.46930 | 36931 ft | 490 kts | 94° |
| 2026-05-03 21:03 | 42.77884 | -74.37688 | 36929 ft | 489 kts | 95° |
| 2026-05-03 21:03 | 42.77380 | -74.28453 | 36932 ft | 489 kts | 95° |
| 2026-05-03 21:04 | 42.76863 | -74.19217 | 36920 ft | 489 kts | 95° |